createdAt,value
2018-10-11T00:00:50.062Z,63.40
2018-10-11T00:03:18.863Z,63.50
2018-10-11T00:05:47.414Z,63.40
2018-10-11T00:08:16.003Z,64.10
2018-10-11T00:10:44.760Z,63.70
2018-10-11T00:13:13.335Z,63.70
2018-10-11T00:15:41.870Z,63.50
2018-10-11T00:18:10.888Z,63.60
2018-10-11T00:20:39.456Z,63.50
2018-10-11T00:23:08.248Z,63.70
2018-10-11T00:25:36.984Z,63.50
2018-10-11T00:28:05.628Z,63.40
2018-10-11T00:30:34.429Z,63.50
2018-10-11T00:33:03.046Z,63.40
2018-10-11T00:35:31.564Z,63.40
2018-10-11T00:38:00.180Z,63.40
2018-10-11T00:40:28.905Z,63.50
2018-10-11T00:42:57.626Z,63.30
2018-10-11T00:45:26.265Z,63.30
2018-10-11T00:47:54.824Z,63.30
2018-10-11T00:50:23.491Z,63.30
2018-10-11T00:52:52.042Z,63.40
2018-10-11T00:55:20.569Z,63.30
2018-10-11T00:57:49.128Z,63.20
2018-10-11T01:00:17.711Z,63.30
2018-10-11T01:02:46.296Z,63.40
2018-10-11T01:05:14.836Z,63.30
2018-10-11T01:07:43.406Z,63.40
2018-10-11T01:10:12.490Z,63.30
2018-10-11T01:12:41.040Z,63.30
2018-10-11T01:15:09.590Z,63.40
2018-10-11T01:17:38.120Z,63.00
2018-10-11T01:20:06.700Z,63.30
2018-10-11T01:22:35.593Z,63.20
2018-10-11T01:25:04.371Z,63.30
2018-10-11T01:27:33.272Z,63.30
2018-10-11T01:30:01.823Z,63.20
2018-10-11T01:32:30.391Z,63.20
2018-10-11T01:34:58.910Z,63.00
2018-10-11T01:37:28.109Z,62.70
2018-10-11T01:39:56.665Z,62.70
2018-10-11T01:42:25.397Z,62.60
2018-10-11T01:44:53.981Z,62.60
2018-10-11T01:47:22.547Z,62.50
2018-10-11T01:49:51.947Z,62.30
2018-10-11T01:52:20.545Z,62.30
2018-10-11T01:54:49.143Z,62.40
2018-10-11T01:57:17.757Z,62.30
2018-10-11T01:59:46.286Z,62.20
2018-10-11T02:02:14.861Z,62.30
2018-10-11T02:04:43.602Z,62.30
2018-10-11T02:07:12.203Z,62.10
2018-10-11T02:09:40.752Z,62.30
2018-10-11T02:12:09.518Z,62.00
2018-10-11T02:14:38.101Z,61.90
2018-10-11T02:17:06.695Z,62.20
2018-10-11T02:19:35.379Z,62.00
2018-10-11T02:22:03.927Z,61.90
2018-10-11T02:24:32.561Z,61.90
2018-10-11T02:27:01.433Z,61.90
2018-10-11T02:29:29.970Z,61.90
2018-10-11T02:31:58.846Z,61.90
2018-10-11T02:34:27.488Z,62.00
2018-10-11T02:36:56.189Z,61.70
2018-10-11T02:39:24.909Z,61.70
2018-10-11T02:41:53.489Z,61.70
2018-10-11T02:44:22.075Z,61.60
2018-10-11T02:46:50.619Z,61.60
2018-10-11T02:49:19.166Z,61.70
2018-10-11T02:51:47.699Z,61.70
2018-10-11T02:54:17.079Z,61.60
2018-10-11T02:56:45.737Z,61.50
2018-10-11T02:59:25.543Z,61.60
2018-10-11T03:01:54.160Z,61.40
2018-10-11T03:04:23.097Z,61.70
2018-10-11T03:06:52.087Z,61.40
2018-10-11T03:09:20.735Z,61.40
2018-10-11T03:11:49.355Z,61.40
2018-10-11T03:14:18.067Z,61.30
2018-10-11T03:16:46.755Z,61.30
2018-10-11T03:19:15.367Z,61.30
2018-10-11T03:21:44.245Z,61.30
2018-10-11T03:24:13.209Z,61.40
2018-10-11T03:26:42.030Z,61.40
2018-10-11T03:29:10.650Z,61.60
2018-10-11T03:31:39.606Z,61.70
2018-10-11T03:34:08.189Z,61.90
2018-10-11T03:36:36.774Z,61.90
2018-10-11T03:39:06.802Z,62.10
2018-10-11T03:41:35.409Z,62.10
2018-10-11T03:44:04.050Z,62.40
2018-10-11T03:46:32.767Z,63.00
2018-10-11T03:49:01.250Z,62.60
2018-10-11T03:51:30.226Z,62.30
2018-10-11T03:53:59.741Z,62.50
2018-10-11T03:56:28.370Z,62.70
2018-10-11T03:58:57.007Z,62.60
2018-10-11T04:01:25.644Z,63.40
2018-10-11T04:03:54.574Z,62.90
2018-10-11T04:06:24.122Z,63.20
2018-10-11T04:08:52.692Z,63.20
2018-10-11T04:11:21.787Z,63.20
2018-10-11T04:13:50.338Z,63.20
2018-10-11T04:16:18.907Z,63.50
2018-10-11T04:18:47.704Z,63.60
2018-10-11T04:21:16.861Z,63.80
2018-10-11T04:23:45.549Z,63.90
2018-10-11T04:26:14.229Z,63.90
2018-10-11T04:28:42.948Z,64.50
2018-10-11T04:31:11.744Z,64.50
2018-10-11T04:33:40.298Z,64.50
2018-10-11T04:36:08.956Z,65.10
2018-10-11T04:38:37.474Z,64.50
2018-10-11T04:41:06.549Z,64.50
2018-10-11T04:43:35.385Z,64.80
2018-10-11T04:46:04.725Z,64.50
2018-10-11T04:48:33.609Z,64.50
2018-10-11T04:51:02.755Z,64.50
2018-10-11T04:53:31.386Z,64.50
2018-10-11T04:56:00.013Z,65.10
2018-10-11T04:58:29.159Z,64.50
2018-10-11T05:00:58.513Z,65.00
2018-10-11T05:03:27.092Z,64.50
2018-10-11T05:05:55.711Z,64.40
2018-10-11T05:08:24.895Z,64.50
2018-10-11T05:10:53.517Z,64.60
2018-10-11T05:13:45.247Z,64.80
2018-10-11T05:16:14.693Z,65.20
2018-10-11T05:18:49.346Z,65.10
2018-10-11T05:21:18.001Z,65.30
2018-10-11T05:23:47.475Z,65.30
2018-10-11T05:26:16.195Z,65.40
2018-10-11T05:28:44.798Z,65.50
2018-10-11T05:31:14.343Z,65.90
2018-10-11T05:33:43.901Z,65.80
2018-10-11T05:36:13.453Z,65.90
2018-10-11T05:38:42.343Z,66.10
2018-10-11T05:41:11.431Z,66.10
2018-10-11T05:43:40.045Z,66.30
2018-10-11T05:46:11.841Z,66.30
2018-10-11T05:48:40.457Z,66.40
2018-10-11T05:51:09.127Z,66.50
2018-10-11T05:53:37.777Z,66.30
2018-10-11T05:56:06.611Z,66.20
2018-10-11T05:58:35.328Z,66.50
2018-10-11T06:01:03.978Z,65.80
2018-10-11T06:03:32.583Z,65.50
2018-10-11T06:06:01.256Z,65.30
2018-10-11T06:08:29.857Z,65.10
2018-10-11T06:10:59.068Z,64.90
2018-10-11T06:13:27.948Z,65.20
2018-10-11T06:15:56.585Z,65.30
2018-10-11T06:18:25.223Z,64.90
2018-10-11T06:20:53.892Z,64.80
2018-10-11T06:23:22.453Z,64.80
2018-10-11T06:25:51.079Z,64.80
2018-10-11T06:28:19.755Z,64.90
2018-10-11T06:30:48.991Z,64.90
2018-10-11T06:33:18.886Z,64.90
2018-10-11T06:35:47.578Z,64.80
2018-10-11T06:38:16.259Z,64.40
2018-10-11T06:40:45.562Z,64.10
2018-10-11T06:43:14.230Z,64.00
2018-10-11T06:45:44.038Z,64.10
2018-10-11T06:48:12.686Z,63.90
2018-10-11T06:50:42.662Z,63.60
2018-10-11T06:53:11.633Z,63.20
2018-10-11T06:55:40.208Z,62.70
2018-10-11T06:58:09.294Z,62.90
2018-10-11T07:00:38.051Z,62.70
2018-10-11T07:03:06.868Z,62.30
2018-10-11T07:05:36.506Z,62.30
2018-10-11T07:08:05.096Z,62.00
2018-10-11T07:10:33.706Z,61.60
2018-10-11T07:13:02.254Z,61.40
2018-10-11T07:15:30.812Z,60.90
2018-10-11T07:17:59.460Z,61.00
2018-10-11T07:20:28.084Z,61.00
2018-10-11T07:22:56.682Z,61.00
2018-10-11T07:25:25.280Z,60.60
2018-10-11T07:27:53.831Z,60.30
2018-10-11T07:30:22.576Z,59.80
2018-10-11T07:32:51.140Z,60.10
2018-10-11T07:35:20.068Z,58.90
2018-10-11T07:37:48.545Z,58.40
2018-10-11T07:40:17.173Z,58.40
2018-10-11T07:42:46.030Z,58.00
2018-10-11T07:45:14.770Z,57.60
2018-10-11T07:47:43.491Z,56.90
2018-10-11T07:50:12.128Z,56.40
2018-10-11T07:52:40.737Z,55.90
2018-10-11T07:55:09.540Z,56.00
2018-10-11T07:57:38.175Z,54.40
2018-10-11T08:00:07.251Z,54.10
2018-10-11T08:02:36.117Z,53.00
2018-10-11T08:05:04.757Z,52.60
2018-10-11T08:07:33.323Z,51.50
2018-10-11T08:10:01.950Z,50.80
2018-10-11T08:12:30.511Z,50.00
2018-10-11T08:14:59.058Z,48.40
2018-10-11T08:17:27.965Z,47.70
2018-10-11T08:19:56.422Z,46.50
2018-10-11T08:22:25.027Z,45.70
2018-10-11T08:24:53.867Z,45.70
2018-10-11T08:27:22.663Z,43.70
2018-10-11T08:29:51.640Z,43.70
2018-10-11T08:32:20.336Z,43.90
2018-10-11T08:34:48.865Z,42.80
2018-10-11T08:37:18.375Z,42.10
2018-10-11T08:39:46.943Z,41.40
2018-10-11T08:42:15.554Z,40.70
2018-10-11T08:44:44.217Z,40.10
2018-10-11T08:47:12.774Z,39.00
2018-10-11T08:49:41.629Z,37.60
2018-10-11T08:52:10.192Z,37.70
2018-10-11T08:54:48.514Z,36.80
2018-10-11T08:57:17.843Z,36.60
2018-10-11T08:59:46.797Z,35.10
2018-10-11T09:02:15.429Z,34.80
2018-10-11T09:04:44.368Z,33.80
2018-10-11T09:07:12.983Z,33.60
2018-10-11T09:09:42.080Z,32.60
2018-10-11T09:12:10.647Z,31.20
2018-10-11T09:14:39.831Z,31.30
2018-10-11T09:17:08.476Z,31.40
2018-10-11T09:19:37.175Z,29.90
2018-10-11T09:22:05.789Z,28.80
2018-10-11T09:24:36.179Z,28.50
2018-10-11T09:27:05.101Z,28.00
2018-10-11T09:29:34.209Z,27.60
2018-10-11T09:32:02.910Z,27.30
2018-10-11T09:34:31.490Z,26.70
2018-10-11T09:37:00.626Z,26.00
2018-10-11T09:39:29.236Z,26.40
2018-10-11T09:41:57.783Z,26.20
2018-10-11T09:44:26.381Z,25.80
2018-10-11T09:46:54.931Z,25.30
2018-10-11T09:49:23.635Z,24.70
2018-10-11T09:51:52.561Z,24.40
2018-10-11T09:54:21.771Z,24.00
2018-10-11T09:57:12.493Z,23.70
2018-10-11T09:59:41.460Z,23.90
2018-10-11T10:02:11.626Z,23.40
2018-10-11T10:04:43.971Z,23.20
2018-10-11T10:07:13.066Z,23.20
2018-10-11T10:09:42.565Z,22.80
2018-10-11T10:12:11.817Z,22.20
2018-10-11T10:14:41.107Z,21.50
2018-10-11T10:17:10.235Z,21.80
2018-10-11T10:19:38.788Z,21.90
2018-10-11T10:22:07.517Z,21.40
2018-10-11T10:24:36.659Z,21.20
2018-10-11T10:27:05.430Z,21.00
2018-10-11T10:29:34.459Z,20.90
2018-10-11T10:32:04.436Z,20.70
2018-10-11T10:34:33.449Z,20.70
2018-10-11T10:37:02.604Z,20.70
2018-10-11T10:39:31.229Z,20.70
2018-10-11T10:41:59.901Z,20.70
2018-10-11T10:44:28.505Z,20.70
2018-10-11T10:46:57.241Z,20.70
2018-10-11T10:49:25.887Z,20.70
2018-10-11T10:51:54.777Z,20.60
2018-10-11T10:54:26.771Z,20.60
2018-10-11T10:56:56.451Z,20.10
2018-10-11T10:59:25.453Z,19.70
2018-10-11T11:01:55.250Z,18.10
2018-10-11T11:04:24.313Z,18.90
2018-10-11T11:06:53.216Z,19.00
2018-10-11T11:09:22.741Z,18.90
2018-10-11T11:11:51.670Z,19.50
2018-10-11T11:14:20.488Z,18.70
2018-10-11T11:16:49.134Z,18.70
2018-10-11T11:19:18.351Z,18.00
2018-10-11T11:21:47.101Z,17.30
2018-10-11T11:24:15.903Z,18.00
2018-10-11T11:26:45.596Z,17.60
2018-10-11T11:29:15.071Z,17.20
2018-10-11T11:31:44.437Z,16.40
2018-10-11T11:34:13.618Z,17.40
2018-10-11T11:36:42.403Z,16.80
2018-10-11T11:39:11.251Z,17.70
2018-10-11T11:41:39.850Z,17.40
2018-10-11T11:44:08.656Z,19.10
2018-10-11T11:46:37.286Z,18.50
2018-10-11T11:49:05.904Z,18.10
2018-10-11T11:51:34.682Z,17.80
2018-10-11T11:54:03.338Z,18.00
2018-10-11T11:56:32.190Z,16.40
2018-10-11T11:59:01.596Z,16.20
2018-10-11T12:01:30.234Z,16.80
2018-10-11T12:03:59.588Z,16.30
2018-10-11T12:06:28.849Z,16.90
2018-10-11T12:08:57.640Z,15.80
2018-10-11T12:11:26.285Z,15.90
2018-10-11T12:13:54.947Z,15.10
2018-10-11T12:16:23.773Z,15.30
2018-10-11T12:18:52.383Z,15.70
2018-10-11T12:21:21.648Z,15.10
2018-10-11T12:23:50.242Z,15.40
2018-10-11T12:26:18.895Z,15.10
2018-10-11T12:28:48.089Z,15.30
2018-10-11T12:31:16.868Z,15.60
2018-10-11T12:33:45.617Z,15.30
2018-10-11T12:36:14.831Z,15.30
2018-10-11T12:38:43.659Z,15.30
2018-10-11T12:41:12.384Z,14.90
2018-10-11T12:43:41.308Z,15.10
2018-10-11T12:46:10.016Z,14.40
2018-10-11T12:48:38.709Z,15.20
2018-10-11T12:51:07.666Z,14.60
2018-10-11T12:53:39.883Z,15.30
2018-10-11T12:56:05.400Z,14.90
2018-10-11T12:58:34.102Z,15.10
2018-10-11T13:01:02.916Z,14.80
2018-10-11T13:03:31.603Z,15.30
2018-10-11T13:06:00.200Z,14.90
2018-10-11T13:08:29.649Z,14.90
2018-10-11T13:10:58.296Z,15.50
2018-10-11T13:13:27.622Z,15.80
2018-10-11T13:15:59.461Z,15.80
2018-10-11T13:18:25.016Z,15.60
2018-10-11T13:20:53.876Z,16.20
2018-10-11T13:23:23.475Z,15.80
2018-10-11T13:25:52.140Z,16.30
2018-10-11T13:28:21.036Z,16.70
2018-10-11T13:30:49.745Z,16.60
2018-10-11T13:33:18.383Z,16.50
2018-10-11T13:35:47.140Z,16.80
2018-10-11T13:38:16.363Z,16.70
2018-10-11T13:40:45.136Z,16.90
2018-10-11T13:43:13.741Z,16.80
2018-10-11T13:45:42.377Z,16.60
2018-10-11T13:48:11.557Z,16.60
2018-10-11T13:50:42.488Z,16.60
2018-10-11T13:53:15.423Z,16.60
2018-10-11T13:55:40.851Z,16.90
2018-10-11T13:58:10.199Z,16.60
2018-10-11T14:00:39.762Z,16.80
2018-10-11T14:03:08.700Z,16.80
2018-10-11T14:05:37.388Z,17.20
2018-10-11T14:08:06.257Z,17.00
2018-10-11T14:10:35.010Z,17.20
2018-10-11T14:13:11.068Z,17.10
2018-10-11T14:15:32.911Z,17.40
2018-10-11T14:18:06.214Z,16.80
2018-10-11T14:20:30.572Z,17.10
2018-10-11T14:22:59.179Z,16.60
2018-10-11T14:25:28.492Z,17.20
2018-10-11T14:27:57.211Z,16.90
2018-10-11T14:30:25.870Z,17.00
2018-10-11T14:32:55.130Z,17.10
2018-10-11T14:35:24.169Z,17.20
2018-10-11T14:37:53.977Z,16.90
2018-10-11T14:40:22.687Z,17.10
2018-10-11T14:42:51.308Z,17.20
2018-10-11T14:45:20.156Z,17.40
2018-10-11T14:47:49.767Z,17.50
2018-10-11T14:50:18.681Z,17.30
2018-10-11T14:52:47.485Z,17.10
2018-10-11T14:55:16.314Z,17.20
2018-10-11T14:57:45.685Z,17.80
2018-10-11T15:00:14.997Z,16.90
2018-10-11T15:02:43.124Z,16.80
2018-10-11T15:05:11.817Z,16.90
2018-10-11T15:07:40.553Z,16.10
2018-10-11T15:10:11.517Z,17.20
2018-10-11T15:12:41.608Z,16.60
2018-10-11T15:15:10.533Z,16.70
2018-10-11T15:17:39.757Z,16.40
2018-10-11T15:20:08.590Z,16.50
2018-10-11T15:22:37.841Z,16.70
2018-10-11T15:25:07.503Z,16.20
2018-10-11T15:27:36.356Z,16.00
2018-10-11T15:30:05.400Z,16.40
2018-10-11T15:32:34.060Z,16.20
2018-10-11T15:35:02.847Z,16.40
2018-10-11T15:37:31.636Z,16.40
2018-10-11T15:40:00.299Z,16.50
2018-10-11T15:42:28.993Z,17.10
2018-10-11T15:44:58.126Z,16.50
2018-10-11T15:47:26.904Z,16.50
2018-10-11T15:49:55.592Z,17.00
2018-10-11T15:52:24.920Z,17.10
2018-10-11T15:54:53.553Z,16.80
2018-10-11T15:57:22.452Z,17.10
2018-10-11T15:59:51.604Z,17.40
2018-10-11T16:02:21.105Z,17.60
2018-10-11T16:04:50.402Z,17.90
2018-10-11T16:07:19.863Z,18.30
2018-10-11T16:09:49.273Z,18.10
2018-10-11T16:12:18.680Z,18.00
2018-10-11T16:14:48.267Z,16.90
2018-10-11T16:17:17.055Z,17.40
2018-10-11T16:19:46.326Z,17.40
2018-10-11T16:22:15.110Z,18.30
2018-10-11T16:24:44.132Z,17.80
2018-10-11T16:27:13.163Z,18.00
2018-10-11T16:29:41.898Z,18.70
2018-10-11T16:32:10.811Z,18.60
2018-10-11T16:34:39.679Z,18.50
2018-10-11T16:37:08.349Z,18.50
2018-10-11T16:39:37.056Z,18.40
2018-10-11T16:42:05.739Z,18.30
2018-10-11T16:44:34.920Z,19.40
2018-10-11T16:47:04.049Z,19.40
2018-10-11T16:49:32.869Z,19.80
2018-10-11T16:52:01.867Z,20.20
2018-10-11T16:54:30.600Z,20.20
2018-10-11T16:56:59.336Z,20.50
2018-10-11T16:59:28.150Z,20.50
2018-10-11T17:01:56.708Z,21.00
2018-10-11T17:04:30.334Z,21.00
2018-10-11T17:06:59.602Z,21.40
2018-10-11T17:09:28.412Z,21.70
2018-10-11T17:11:57.071Z,22.10
2018-10-11T17:14:25.817Z,22.40
2018-10-11T17:16:54.818Z,22.50
2018-10-11T17:19:23.505Z,22.70
2018-10-11T17:21:52.409Z,22.80
2018-10-11T17:24:21.222Z,23.20
2018-10-11T17:26:49.947Z,23.20
2018-10-11T17:29:19.345Z,23.20
2018-10-11T17:31:48.506Z,23.60
2018-10-11T17:34:17.189Z,23.50
2018-10-11T17:36:46.384Z,23.90
2018-10-11T17:39:14.990Z,24.30
2018-10-11T17:41:43.615Z,24.50
2018-10-11T17:44:13.207Z,24.80
2018-10-11T17:46:42.021Z,24.90
2018-10-11T17:49:10.745Z,25.20
2018-10-11T17:51:39.288Z,25.40
2018-10-11T17:54:07.898Z,25.80
2018-10-11T17:56:37.170Z,25.80
2018-10-11T17:59:06.001Z,26.10
2018-10-11T18:01:34.871Z,26.50
2018-10-11T18:04:03.511Z,26.80
2018-10-11T18:06:33.185Z,27.20
2018-10-11T18:09:02.138Z,27.60
2018-10-11T18:11:30.797Z,27.40
2018-10-11T18:13:59.958Z,27.00
2018-10-11T18:16:28.957Z,27.20
2018-10-11T18:18:57.552Z,26.90
2018-10-11T18:21:26.149Z,26.50
2018-10-11T18:23:54.829Z,26.20
2018-10-11T18:26:23.438Z,26.10
2018-10-11T18:28:52.849Z,26.10
2018-10-11T18:31:21.411Z,26.20
2018-10-11T18:33:50.019Z,26.20
2018-10-11T18:36:18.985Z,26.30
2018-10-11T18:38:47.864Z,26.60
2018-10-11T18:41:17.015Z,26.80
2018-10-11T18:43:46.422Z,27.10
2018-10-11T18:46:15.077Z,27.10
2018-10-11T18:48:43.729Z,27.10
2018-10-11T18:51:12.535Z,28.10
2018-10-11T18:53:42.155Z,28.00
2018-10-11T18:56:10.777Z,28.10
2018-10-11T18:58:39.385Z,28.00
2018-10-11T19:01:08.048Z,27.80
2018-10-11T19:03:36.626Z,28.00
2018-10-11T19:06:05.245Z,27.90
2018-10-11T19:08:34.481Z,28.60
2018-10-11T19:11:03.298Z,27.90
2018-10-11T19:13:34.093Z,27.80
2018-10-11T19:16:03.516Z,27.90
2018-10-11T19:18:32.093Z,27.80
2018-10-11T19:21:00.727Z,27.80
2018-10-11T19:23:30.002Z,27.80
2018-10-11T19:25:58.627Z,27.80
2018-10-11T19:28:27.849Z,27.90
2018-10-11T19:30:56.527Z,28.40
2018-10-11T19:33:25.287Z,28.10
2018-10-11T19:35:54.142Z,28.40
2018-10-11T19:38:22.879Z,28.80
2018-10-11T19:40:52.261Z,28.70
2018-10-11T19:43:20.892Z,28.80
2018-10-11T19:45:49.471Z,28.70
2018-10-11T19:48:18.162Z,28.90
2018-10-11T19:50:46.744Z,29.10
2018-10-11T19:53:15.381Z,29.00
2018-10-11T19:55:43.983Z,29.10
2018-10-11T19:58:12.637Z,29.30
2018-10-11T20:00:41.175Z,29.50
2018-10-11T20:03:09.792Z,29.50
2018-10-11T20:05:38.389Z,29.70
2018-10-11T20:08:07.242Z,29.80
2018-10-11T20:10:35.712Z,29.90
2018-10-11T20:13:04.563Z,30.00
2018-10-11T20:15:33.148Z,30.10
2018-10-11T20:18:03.903Z,30.20
2018-10-11T20:20:30.927Z,30.10
2018-10-11T20:22:59.537Z,30.20
2018-10-11T20:25:28.264Z,30.60
2018-10-11T20:27:57.285Z,30.80
2018-10-11T20:30:25.857Z,31.00
2018-10-11T20:32:54.505Z,31.30
2018-10-11T20:35:23.153Z,31.40
2018-10-11T20:37:51.973Z,31.70
2018-10-11T20:40:20.597Z,31.70
2018-10-11T20:42:49.749Z,32.10
2018-10-11T20:45:18.339Z,32.40
2018-10-11T20:47:47.187Z,32.30
2018-10-11T20:50:15.788Z,33.00
2018-10-11T20:52:44.347Z,32.90
2018-10-11T20:55:12.945Z,33.00
2018-10-11T20:57:41.520Z,33.20
2018-10-11T21:00:10.569Z,33.70
2018-10-11T21:02:39.214Z,34.70
2018-10-11T21:05:07.895Z,33.70
2018-10-11T21:07:36.784Z,33.70
2018-10-11T21:10:06.339Z,33.70
2018-10-11T21:12:35.205Z,34.30
2018-10-11T21:15:03.850Z,35.10
2018-10-11T21:17:32.485Z,34.60
2018-10-11T21:20:01.457Z,34.90
2018-10-11T21:22:30.037Z,35.10
2018-10-11T21:24:58.620Z,35.70
2018-10-11T21:27:27.241Z,35.70
2018-10-11T21:29:55.791Z,35.60
2018-10-11T21:32:24.423Z,35.70
2018-10-11T21:34:52.996Z,35.90
2018-10-11T21:37:21.584Z,35.70
2018-10-11T21:39:50.173Z,35.80
2018-10-11T21:42:18.854Z,35.90
2018-10-11T21:44:47.437Z,35.80
2018-10-11T21:47:16.054Z,35.70
2018-10-11T21:49:44.611Z,35.80
2018-10-11T21:52:13.224Z,36.00
2018-10-11T21:54:42.421Z,36.30
2018-10-11T21:57:11.023Z,36.10
2018-10-11T21:59:39.859Z,36.00
2018-10-11T22:02:08.532Z,36.10
2018-10-11T22:04:37.283Z,36.60
2018-10-11T22:07:05.889Z,36.40
2018-10-11T22:09:34.577Z,36.90
2018-10-11T22:12:03.261Z,37.40
2018-10-11T22:14:31.909Z,37.10
2018-10-11T22:17:00.466Z,37.40
2018-10-11T22:19:29.056Z,37.70
2018-10-11T22:21:57.879Z,38.00
2018-10-11T22:24:26.479Z,38.20
2018-10-11T22:26:55.115Z,38.30
2018-10-11T22:29:23.683Z,38.60
2018-10-11T22:31:53.011Z,38.90
2018-10-11T22:34:21.698Z,38.60
2018-10-11T22:36:50.297Z,38.90
2018-10-11T22:39:19.070Z,39.00
2018-10-11T22:41:47.721Z,39.10
2018-10-11T22:44:16.375Z,39.40
2018-10-11T22:46:45.037Z,39.90
2018-10-11T22:49:13.625Z,40.70
2018-10-11T22:51:42.193Z,40.60
2018-10-11T22:54:11.347Z,40.60
2018-10-11T22:56:39.951Z,40.60
2018-10-11T22:59:08.478Z,40.60
2018-10-11T23:01:37.098Z,40.60
2018-10-11T23:04:05.666Z,40.50
2018-10-11T23:06:34.241Z,40.50
2018-10-11T23:09:02.963Z,40.50
2018-10-11T23:11:31.560Z,40.50
2018-10-11T23:14:00.109Z,40.50
2018-10-11T23:16:28.647Z,39.80
2018-10-11T23:18:57.169Z,40.50
2018-10-11T23:21:25.881Z,40.50
2018-10-11T23:23:54.594Z,40.50
2018-10-11T23:26:23.233Z,40.50
2018-10-11T23:28:51.801Z,40.50
2018-10-11T23:31:20.429Z,40.50
2018-10-11T23:33:49.013Z,40.50
2018-10-11T23:36:17.610Z,40.40
2018-10-11T23:38:46.139Z,40.40
2018-10-11T23:41:14.719Z,40.40
2018-10-11T23:43:43.251Z,40.40
2018-10-11T23:46:11.861Z,40.40
2018-10-11T23:48:40.406Z,41.40
2018-10-11T23:51:09.033Z,40.30
2018-10-11T23:53:37.921Z,41.20
2018-10-11T23:56:07.185Z,41.60
2018-10-11T23:58:35.992Z,41.40
